sensor_id;sensor_type;location;lat;lon;timestamp;P1;durP1;ratioP1;P2;durP2;ratioP2
62994;SDS011;49086;52.300;4.850;2022-11-10T00:01:07;14.10;;;2.20;;
62994;SDS011;49086;52.300;4.850;2022-11-10T00:03:33;14.70;;;2.67;;
62994;SDS011;49086;52.300;4.850;2022-11-10T00:06:00;7.25;;;2.13;;
62994;SDS011;49086;52.300;4.850;2022-11-10T00:08:26;7.70;;;2.03;;
62994;SDS011;49086;52.300;4.850;2022-11-10T00:10:52;5.47;;;1.80;;
62994;SDS011;49086;52.300;4.850;2022-11-10T00:13:26;12.77;;;2.42;;
62994;SDS011;49086;52.300;4.850;2022-11-10T00:15:53;15.55;;;2.03;;
62994;SDS011;49086;52.300;4.850;2022-11-10T00:18:38;8.35;;;2.40;;
62994;SDS011;49086;52.300;4.850;2022-11-10T00:21:05;8.23;;;2.08;;
62994;SDS011;49086;52.300;4.850;2022-11-10T00:23:30;7.78;;;2.47;;
62994;SDS011;49086;52.300;4.850;2022-11-10T00:25:56;12.80;;;2.75;;
62994;SDS011;49086;52.300;4.850;2022-11-10T00:28:21;9.67;;;2.47;;
62994;SDS011;49086;52.300;4.850;2022-11-10T00:30:46;13.13;;;2.70;;
62994;SDS011;49086;52.300;4.850;2022-11-10T00:33:11;13.80;;;3.47;;
62994;SDS011;49086;52.300;4.850;2022-11-10T00:35:36;13.67;;;2.50;;
62994;SDS011;49086;52.300;4.850;2022-11-10T00:38:02;13.65;;;2.67;;
62994;SDS011;49086;52.300;4.850;2022-11-10T00:40:29;11.25;;;2.70;;
62994;SDS011;49086;52.300;4.850;2022-11-10T00:42:54;13.97;;;3.33;;
62994;SDS011;49086;52.300;4.850;2022-11-10T00:45:19;13.53;;;3.07;;
62994;SDS011;49086;52.300;4.850;2022-11-10T00:47:45;15.47;;;3.63;;
62994;SDS011;49086;52.300;4.850;2022-11-10T00:50:10;11.70;;;4.03;;
62994;SDS011;49086;52.300;4.850;2022-11-10T00:52:37;13.38;;;3.70;;
62994;SDS011;49086;52.300;4.850;2022-11-10T00:55:02;14.98;;;3.47;;
62994;SDS011;49086;52.300;4.850;2022-11-10T00:57:28;15.95;;;3.55;;
62994;SDS011;49086;52.300;4.850;2022-11-10T00:59:53;16.30;;;3.40;;
62994;SDS011;49086;52.300;4.850;2022-11-10T01:02:18;12.13;;;3.23;;
62994;SDS011;49086;52.300;4.850;2022-11-10T01:04:46;12.70;;;3.23;;
62994;SDS011;49086;52.300;4.850;2022-11-10T01:07:11;13.32;;;3.33;;
62994;SDS011;49086;52.300;4.850;2022-11-10T01:09:36;12.03;;;2.77;;
62994;SDS011;49086;52.300;4.850;2022-11-10T01:12:04;11.52;;;3.50;;
62994;SDS011;49086;52.300;4.850;2022-11-10T01:14:34;17.30;;;3.13;;
62994;SDS011;49086;52.300;4.850;2022-11-10T01:17:01;11.45;;;3.35;;
62994;SDS011;49086;52.300;4.850;2022-11-10T01:19:27;20.92;;;3.65;;
62994;SDS011;49086;52.300;4.850;2022-11-10T01:21:53;16.15;;;4.15;;
62994;SDS011;49086;52.300;4.850;2022-11-10T01:24:20;15.35;;;3.50;;
62994;SDS011;49086;52.300;4.850;2022-11-10T01:26:48;12.75;;;3.10;;
62994;SDS011;49086;52.300;4.850;2022-11-10T01:29:18;18.80;;;3.80;;
62994;SDS011;49086;52.300;4.850;2022-11-10T01:31:43;9.60;;;3.60;;
62994;SDS011;49086;52.300;4.850;2022-11-10T01:34:11;13.15;;;3.10;;
62994;SDS011;49086;52.300;4.850;2022-11-10T01:36:36;16.17;;;3.30;;
62994;SDS011;49086;52.300;4.850;2022-11-10T01:39:07;11.97;;;3.73;;
62994;SDS011;49086;52.300;4.850;2022-11-10T01:41:32;17.70;;;3.70;;
62994;SDS011;49086;52.300;4.850;2022-11-10T01:44:13;11.60;;;3.17;;
62994;SDS011;49086;52.300;4.850;2022-11-10T01:46:38;14.30;;;3.58;;
62994;SDS011;49086;52.300;4.850;2022-11-10T01:49:04;18.27;;;4.17;;
62994;SDS011;49086;52.300;4.850;2022-11-10T01:51:34;12.73;;;3.42;;
62994;SDS011;49086;52.300;4.850;2022-11-10T01:54:08;12.23;;;3.47;;
62994;SDS011;49086;52.300;4.850;2022-11-10T01:56:36;17.73;;;3.72;;
62994;SDS011;49086;52.300;4.850;2022-11-10T01:59:04;14.68;;;3.88;;
62994;SDS011;49086;52.300;4.850;2022-11-10T02:01:31;19.33;;;3.92;;
62994;SDS011;49086;52.300;4.850;2022-11-10T02:03:58;11.17;;;3.83;;
62994;SDS011;49086;52.300;4.850;2022-11-10T02:06:26;14.00;;;4.30;;
62994;SDS011;49086;52.300;4.850;2022-11-10T02:08:52;16.02;;;3.58;;
62994;SDS011;49086;52.300;4.850;2022-11-10T02:11:35;19.42;;;3.92;;
62994;SDS011;49086;52.300;4.850;2022-11-10T02:14:03;15.35;;;3.90;;
62994;SDS011;49086;52.300;4.850;2022-11-10T02:16:29;11.68;;;3.80;;
62994;SDS011;49086;52.300;4.850;2022-11-10T02:18:55;15.55;;;3.72;;
62994;SDS011;49086;52.300;4.850;2022-11-10T02:21:21;14.25;;;3.40;;
62994;SDS011;49086;52.300;4.850;2022-11-10T02:23:52;16.38;;;3.97;;
62994;SDS011;49086;52.300;4.850;2022-11-10T02:26:18;12.77;;;3.45;;
62994;SDS011;49086;52.300;4.850;2022-11-10T02:28:45;15.48;;;3.33;;
62994;SDS011;49086;52.300;4.850;2022-11-10T02:31:11;20.83;;;3.75;;
62994;SDS011;49086;52.300;4.850;2022-11-10T02:33:37;18.48;;;4.35;;
62994;SDS011;49086;52.300;4.850;2022-11-10T02:36:02;15.57;;;3.92;;
62994;SDS011;49086;52.300;4.850;2022-11-10T02:38:27;22.08;;;4.60;;
62994;SDS011;49086;52.300;4.850;2022-11-10T02:40:52;18.65;;;3.42;;
62994;SDS011;49086;52.300;4.850;2022-11-10T02:43:18;15.17;;;3.10;;
62994;SDS011;49086;52.300;4.850;2022-11-10T02:45:45;18.05;;;3.83;;
62994;SDS011;49086;52.300;4.850;2022-11-10T02:48:13;16.15;;;3.42;;
62994;SDS011;49086;52.300;4.850;2022-11-10T02:50:42;14.52;;;3.63;;
62994;SDS011;49086;52.300;4.850;2022-11-10T02:53:13;31.85;;;3.90;;
62994;SDS011;49086;52.300;4.850;2022-11-10T02:55:39;20.92;;;3.97;;
62994;SDS011;49086;52.300;4.850;2022-11-10T02:58:07;11.70;;;3.38;;
62994;SDS011;49086;52.300;4.850;2022-11-10T03:00:33;15.93;;;2.97;;
62994;SDS011;49086;52.300;4.850;2022-11-10T03:02:58;12.97;;;3.20;;
62994;SDS011;49086;52.300;4.850;2022-11-10T03:05:25;8.88;;;2.78;;
62994;SDS011;49086;52.300;4.850;2022-11-10T03:07:54;17.48;;;3.70;;
62994;SDS011;49086;52.300;4.850;2022-11-10T03:10:20;21.08;;;3.78;;
62994;SDS011;49086;52.300;4.850;2022-11-10T03:12:47;18.45;;;3.30;;
62994;SDS011;49086;52.300;4.850;2022-11-10T03:15:13;14.75;;;3.10;;
62994;SDS011;49086;52.300;4.850;2022-11-10T03:17:41;17.15;;;3.47;;
62994;SDS011;49086;52.300;4.850;2022-11-10T03:20:30;9.60;;;3.03;;
62994;SDS011;49086;52.300;4.850;2022-11-10T03:23:08;11.52;;;3.17;;
62994;SDS011;49086;52.300;4.850;2022-11-10T03:26:14;18.35;;;2.75;;
62994;SDS011;49086;52.300;4.850;2022-11-10T03:29:03;23.17;;;4.03;;
62994;SDS011;49086;52.300;4.850;2022-11-10T03:31:29;14.68;;;3.22;;
62994;SDS011;49086;52.300;4.850;2022-11-10T03:33:54;18.43;;;3.80;;
62994;SDS011;49086;52.300;4.850;2022-11-10T03:36:20;10.67;;;3.07;;
62994;SDS011;49086;52.300;4.850;2022-11-10T03:38:46;17.02;;;3.25;;
62994;SDS011;49086;52.300;4.850;2022-11-10T03:41:12;17.75;;;3.20;;
62994;SDS011;49086;52.300;4.850;2022-11-10T03:43:37;17.40;;;3.53;;
62994;SDS011;49086;52.300;4.850;2022-11-10T03:46:02;16.17;;;3.30;;
62994;SDS011;49086;52.300;4.850;2022-11-10T03:48:27;12.53;;;3.90;;
62994;SDS011;49086;52.300;4.850;2022-11-10T03:50:54;17.05;;;3.92;;
62994;SDS011;49086;52.300;4.850;2022-11-10T03:53:19;28.63;;;4.28;;
62994;SDS011;49086;52.300;4.850;2022-11-10T03:55:45;13.23;;;3.47;;
62994;SDS011;49086;52.300;4.850;2022-11-10T03:58:11;15.57;;;3.67;;
62994;SDS011;49086;52.300;4.850;2022-11-10T04:00:38;18.30;;;3.30;;
62994;SDS011;49086;52.300;4.850;2022-11-10T04:03:07;15.82;;;3.15;;
62994;SDS011;49086;52.300;4.850;2022-11-10T04:05:35;15.93;;;2.88;;
62994;SDS011;49086;52.300;4.850;2022-11-10T04:08:23;14.43;;;2.97;;
62994;SDS011;49086;52.300;4.850;2022-11-10T04:11:07;14.80;;;3.38;;
62994;SDS011;49086;52.300;4.850;2022-11-10T04:13:32;16.03;;;4.37;;
62994;SDS011;49086;52.300;4.850;2022-11-10T04:16:19;15.68;;;3.13;;
62994;SDS011;49086;52.300;4.850;2022-11-10T04:18:44;15.70;;;3.13;;
62994;SDS011;49086;52.300;4.850;2022-11-10T04:21:09;15.07;;;3.70;;
62994;SDS011;49086;52.300;4.850;2022-11-10T04:23:36;12.10;;;3.00;;
62994;SDS011;49086;52.300;4.850;2022-11-10T04:26:05;10.77;;;3.60;;
62994;SDS011;49086;52.300;4.850;2022-11-10T04:28:50;9.50;;;2.92;;
62994;SDS011;49086;52.300;4.850;2022-11-10T04:31:20;16.88;;;2.88;;
62994;SDS011;49086;52.300;4.850;2022-11-10T04:33:46;8.50;;;2.60;;
62994;SDS011;49086;52.300;4.850;2022-11-10T04:36:13;19.20;;;3.67;;
62994;SDS011;49086;52.300;4.850;2022-11-10T04:38:39;18.58;;;3.33;;
62994;SDS011;49086;52.300;4.850;2022-11-10T04:41:05;10.05;;;2.75;;
62994;SDS011;49086;52.300;4.850;2022-11-10T04:43:31;16.92;;;3.40;;
62994;SDS011;49086;52.300;4.850;2022-11-10T04:45:57;15.57;;;3.42;;
62994;SDS011;49086;52.300;4.850;2022-11-10T04:48:24;19.08;;;2.97;;
62994;SDS011;49086;52.300;4.850;2022-11-10T04:50:49;14.43;;;3.50;;
62994;SDS011;49086;52.300;4.850;2022-11-10T04:53:15;18.20;;;3.10;;
62994;SDS011;49086;52.300;4.850;2022-11-10T04:55:42;11.55;;;2.80;;
62994;SDS011;49086;52.300;4.850;2022-11-10T04:58:09;16.33;;;3.17;;
62994;SDS011;49086;52.300;4.850;2022-11-10T05:00:35;10.32;;;2.67;;
62994;SDS011;49086;52.300;4.850;2022-11-10T05:03:01;15.70;;;3.05;;
62994;SDS011;49086;52.300;4.850;2022-11-10T05:05:27;15.77;;;2.38;;
62994;SDS011;49086;52.300;4.850;2022-11-10T05:07:52;15.63;;;3.28;;
62994;SDS011;49086;52.300;4.850;2022-11-10T05:10:18;13.10;;;3.17;;
62994;SDS011;49086;52.300;4.850;2022-11-10T05:12:43;17.20;;;3.17;;
62994;SDS011;49086;52.300;4.850;2022-11-10T05:15:11;14.27;;;3.70;;
62994;SDS011;49086;52.300;4.850;2022-11-10T05:17:37;15.85;;;3.97;;
62994;SDS011;49086;52.300;4.850;2022-11-10T05:20:04;10.10;;;2.60;;
62994;SDS011;49086;52.300;4.850;2022-11-10T05:22:29;14.93;;;2.95;;
62994;SDS011;49086;52.300;4.850;2022-11-10T05:24:54;18.73;;;2.97;;
62994;SDS011;49086;52.300;4.850;2022-11-10T05:27:20;9.07;;;2.30;;
62994;SDS011;49086;52.300;4.850;2022-11-10T05:29:46;16.15;;;3.25;;
62994;SDS011;49086;52.300;4.850;2022-11-10T05:32:12;11.35;;;2.60;;
62994;SDS011;49086;52.300;4.850;2022-11-10T05:34:41;22.45;;;4.35;;
62994;SDS011;49086;52.300;4.850;2022-11-10T05:37:08;20.40;;;4.03;;
62994;SDS011;49086;52.300;4.850;2022-11-10T05:39:37;22.33;;;3.63;;
62994;SDS011;49086;52.300;4.850;2022-11-10T05:42:03;11.53;;;3.13;;
62994;SDS011;49086;52.300;4.850;2022-11-10T05:44:28;20.00;;;3.03;;
62994;SDS011;49086;52.300;4.850;2022-11-10T05:46:55;16.10;;;3.55;;
62994;SDS011;49086;52.300;4.850;2022-11-10T05:49:23;17.58;;;3.55;;
62994;SDS011;49086;52.300;4.850;2022-11-10T05:51:48;17.70;;;3.83;;
62994;SDS011;49086;52.300;4.850;2022-11-10T05:54:15;15.32;;;3.45;;
62994;SDS011;49086;52.300;4.850;2022-11-10T05:56:51;17.77;;;3.83;;
62994;SDS011;49086;52.300;4.850;2022-11-10T05:59:17;21.05;;;4.20;;
62994;SDS011;49086;52.300;4.850;2022-11-10T06:01:42;21.15;;;3.47;;
62994;SDS011;49086;52.300;4.850;2022-11-10T06:04:08;19.15;;;3.40;;
62994;SDS011;49086;52.300;4.850;2022-11-10T06:06:35;16.47;;;3.77;;
62994;SDS011;49086;52.300;4.850;2022-11-10T06:09:02;11.95;;;3.08;;
62994;SDS011;49086;52.300;4.850;2022-11-10T06:11:27;19.23;;;3.35;;
62994;SDS011;49086;52.300;4.850;2022-11-10T06:13:53;16.05;;;3.72;;
62994;SDS011;49086;52.300;4.850;2022-11-10T06:16:18;18.30;;;3.75;;
62994;SDS011;49086;52.300;4.850;2022-11-10T06:18:44;19.30;;;3.85;;
62994;SDS011;49086;52.300;4.850;2022-11-10T06:21:13;22.17;;;3.55;;
62994;SDS011;49086;52.300;4.850;2022-11-10T06:23:38;13.38;;;3.78;;
62994;SDS011;49086;52.300;4.850;2022-11-10T06:26:03;13.60;;;3.60;;
62994;SDS011;49086;52.300;4.850;2022-11-10T06:28:29;14.90;;;3.67;;
62994;SDS011;49086;52.300;4.850;2022-11-10T06:30:56;18.77;;;4.40;;
62994;SDS011;49086;52.300;4.850;2022-11-10T06:33:23;16.45;;;4.07;;
62994;SDS011;49086;52.300;4.850;2022-11-10T06:35:49;14.30;;;4.80;;
62994;SDS011;49086;52.300;4.850;2022-11-10T06:38:14;15.93;;;3.72;;
62994;SDS011;49086;52.300;4.850;2022-11-10T06:40:40;19.60;;;4.97;;
62994;SDS011;49086;52.300;4.850;2022-11-10T06:43:05;17.70;;;3.60;;
62994;SDS011;49086;52.300;4.850;2022-11-10T06:45:34;10.85;;;4.00;;
62994;SDS011;49086;52.300;4.850;2022-11-10T06:48:04;13.77;;;3.83;;
62994;SDS011;49086;52.300;4.850;2022-11-10T06:50:32;15.43;;;3.83;;
62994;SDS011;49086;52.300;4.850;2022-11-10T06:52:58;23.88;;;6.05;;
62994;SDS011;49086;52.300;4.850;2022-11-10T06:55:23;19.40;;;4.35;;
62994;SDS011;49086;52.300;4.850;2022-11-10T06:57:49;17.57;;;4.57;;
62994;SDS011;49086;52.300;4.850;2022-11-10T07:00:20;17.08;;;4.05;;
62994;SDS011;49086;52.300;4.850;2022-11-10T07:02:46;17.63;;;4.20;;
62994;SDS011;49086;52.300;4.850;2022-11-10T07:05:12;24.27;;;4.88;;
62994;SDS011;49086;52.300;4.850;2022-11-10T07:07:39;17.20;;;4.03;;
62994;SDS011;49086;52.300;4.850;2022-11-10T07:10:05;19.67;;;4.38;;
62994;SDS011;49086;52.300;4.850;2022-11-10T07:12:31;19.02;;;4.40;;
62994;SDS011;49086;52.300;4.850;2022-11-10T07:15:00;12.38;;;4.15;;
62994;SDS011;49086;52.300;4.850;2022-11-10T07:17:25;16.77;;;5.83;;
62994;SDS011;49086;52.300;4.850;2022-11-10T07:19:50;19.75;;;4.82;;
62994;SDS011;49086;52.300;4.850;2022-11-10T07:22:15;15.98;;;4.38;;
62994;SDS011;49086;52.300;4.850;2022-11-10T07:24:40;20.67;;;3.57;;
62994;SDS011;49086;52.300;4.850;2022-11-10T07:27:07;15.77;;;3.93;;
62994;SDS011;49086;52.300;4.850;2022-11-10T07:29:37;21.45;;;3.80;;
62994;SDS011;49086;52.300;4.850;2022-11-10T07:32:06;14.00;;;3.70;;
62994;SDS011;49086;52.300;4.850;2022-11-10T07:34:32;16.47;;;4.13;;
62994;SDS011;49086;52.300;4.850;2022-11-10T07:37:06;18.50;;;4.00;;
62994;SDS011;49086;52.300;4.850;2022-11-10T07:39:33;13.70;;;3.90;;
62994;SDS011;49086;52.300;4.850;2022-11-10T07:42:03;20.35;;;3.83;;
62994;SDS011;49086;52.300;4.850;2022-11-10T07:44:29;11.93;;;3.53;;
62994;SDS011;49086;52.300;4.850;2022-11-10T07:46:55;16.63;;;3.55;;
62994;SDS011;49086;52.300;4.850;2022-11-10T07:49:25;13.00;;;3.28;;
62994;SDS011;49086;52.300;4.850;2022-11-10T07:51:54;13.55;;;4.18;;
62994;SDS011;49086;52.300;4.850;2022-11-10T07:54:21;21.05;;;3.70;;
62994;SDS011;49086;52.300;4.850;2022-11-10T07:56:46;24.33;;;4.03;;
62994;SDS011;49086;52.300;4.850;2022-11-10T07:59:12;19.47;;;4.10;;
62994;SDS011;49086;52.300;4.850;2022-11-10T08:01:37;13.43;;;3.22;;
62994;SDS011;49086;52.300;4.850;2022-11-10T08:04:06;17.33;;;2.78;;
62994;SDS011;49086;52.300;4.850;2022-11-10T08:06:32;11.03;;;2.83;;
62994;SDS011;49086;52.300;4.850;2022-11-10T08:08:58;11.48;;;2.85;;
62994;SDS011;49086;52.300;4.850;2022-11-10T08:11:24;15.00;;;3.38;;
62994;SDS011;49086;52.300;4.850;2022-11-10T08:13:50;14.48;;;3.00;;
62994;SDS011;49086;52.300;4.850;2022-11-10T08:16:15;12.43;;;3.00;;
62994;SDS011;49086;52.300;4.850;2022-11-10T08:18:41;25.60;;;3.65;;
62994;SDS011;49086;52.300;4.850;2022-11-10T08:21:06;12.25;;;3.10;;
62994;SDS011;49086;52.300;4.850;2022-11-10T08:23:33;14.25;;;3.30;;
62994;SDS011;49086;52.300;4.850;2022-11-10T08:25:59;11.73;;;2.73;;
62994;SDS011;49086;52.300;4.850;2022-11-10T08:28:29;14.20;;;3.10;;
62994;SDS011;49086;52.300;4.850;2022-11-10T08:30:55;12.90;;;2.92;;
62994;SDS011;49086;52.300;4.850;2022-11-10T08:33:26;13.55;;;3.88;;
62994;SDS011;49086;52.300;4.850;2022-11-10T08:35:52;25.13;;;3.65;;
62994;SDS011;49086;52.300;4.850;2022-11-10T08:38:49;10.95;;;2.83;;
62994;SDS011;49086;52.300;4.850;2022-11-10T08:41:16;17.90;;;3.42;;
62994;SDS011;49086;52.300;4.850;2022-11-10T08:43:42;11.10;;;2.83;;
62994;SDS011;49086;52.300;4.850;2022-11-10T08:46:12;16.75;;;2.92;;
62994;SDS011;49086;52.300;4.850;2022-11-10T08:48:46;24.23;;;3.35;;
62994;SDS011;49086;52.300;4.850;2022-11-10T08:51:12;11.82;;;3.45;;
62994;SDS011;49086;52.300;4.850;2022-11-10T08:53:38;16.55;;;3.90;;
62994;SDS011;49086;52.300;4.850;2022-11-10T08:56:07;12.57;;;3.13;;
62994;SDS011;49086;52.300;4.850;2022-11-10T08:58:34;11.77;;;2.78;;
62994;SDS011;49086;52.300;4.850;2022-11-10T09:01:06;17.00;;;3.92;;
62994;SDS011;49086;52.300;4.850;2022-11-10T09:03:45;18.45;;;3.90;;
62994;SDS011;49086;52.300;4.850;2022-11-10T09:06:15;16.67;;;3.45;;
62994;SDS011;49086;52.300;4.850;2022-11-10T09:09:02;13.38;;;2.85;;
62994;SDS011;49086;52.300;4.850;2022-11-10T09:11:27;16.65;;;3.97;;
62994;SDS011;49086;52.300;4.850;2022-11-10T09:13:56;14.40;;;2.95;;
62994;SDS011;49086;52.300;4.850;2022-11-10T09:16:23;14.85;;;3.50;;
62994;SDS011;49086;52.300;4.850;2022-11-10T09:18:54;19.50;;;3.95;;
62994;SDS011;49086;52.300;4.850;2022-11-10T09:21:22;18.88;;;4.03;;
62994;SDS011;49086;52.300;4.850;2022-11-10T09:23:53;10.10;;;3.00;;
62994;SDS011;49086;52.300;4.850;2022-11-10T09:26:40;15.73;;;3.35;;
62994;SDS011;49086;52.300;4.850;2022-11-10T09:29:09;10.85;;;3.38;;
62994;SDS011;49086;52.300;4.850;2022-11-10T09:31:36;17.58;;;3.33;;
62994;SDS011;49086;52.300;4.850;2022-11-10T09:34:04;12.35;;;2.97;;
62994;SDS011;49086;52.300;4.850;2022-11-10T09:36:31;16.15;;;3.58;;
62994;SDS011;49086;52.300;4.850;2022-11-10T09:39:03;17.00;;;3.33;;
62994;SDS011;49086;52.300;4.850;2022-11-10T09:41:28;14.52;;;3.53;;
62994;SDS011;49086;52.300;4.850;2022-11-10T09:46:42;16.92;;;4.05;;
62994;SDS011;49086;52.300;4.850;2022-11-10T09:49:29;18.02;;;3.10;;
62994;SDS011;49086;52.300;4.850;2022-11-10T09:51:57;22.40;;;2.80;;
62994;SDS011;49086;52.300;4.850;2022-11-10T09:57:23;10.38;;;2.75;;
62994;SDS011;49086;52.300;4.850;2022-11-10T09:59:48;17.08;;;2.92;;
62994;SDS011;49086;52.300;4.850;2022-11-10T10:23:51;10.88;;;3.10;;
62994;SDS011;49086;52.300;4.850;2022-11-10T10:26:25;12.35;;;2.70;;
62994;SDS011;49086;52.300;4.850;2022-11-10T10:28:53;14.73;;;2.42;;
62994;SDS011;49086;52.300;4.850;2022-11-10T10:31:41;14.98;;;2.63;;
62994;SDS011;49086;52.300;4.850;2022-11-10T10:34:15;14.63;;;2.67;;
62994;SDS011;49086;52.300;4.850;2022-11-10T10:36:40;15.90;;;4.32;;
62994;SDS011;49086;52.300;4.850;2022-11-10T10:39:46;10.90;;;2.47;;
62994;SDS011;49086;52.300;4.850;2022-11-10T10:42:14;12.57;;;3.13;;
62994;SDS011;49086;52.300;4.850;2022-11-10T10:45:10;10.25;;;2.47;;
62994;SDS011;49086;52.300;4.850;2022-11-10T10:47:38;13.38;;;2.45;;
62994;SDS011;49086;52.300;4.850;2022-11-10T10:53:20;12.57;;;2.75;;
62994;SDS011;49086;52.300;4.850;2022-11-10T10:55:59;15.25;;;2.95;;
62994;SDS011;49086;52.300;4.850;2022-11-10T10:58:27;13.75;;;2.22;;
62994;SDS011;49086;52.300;4.850;2022-11-10T11:01:38;14.18;;;2.60;;
62994;SDS011;49086;52.300;4.850;2022-11-10T11:03:42;9.82;;;2.55;;
62994;SDS011;49086;52.300;4.850;2022-11-10T11:06:20;10.00;;;2.13;;
62994;SDS011;49086;52.300;4.850;2022-11-10T11:09:07;11.52;;;2.15;;
62994;SDS011;49086;52.300;4.850;2022-11-10T11:11:37;12.90;;;2.40;;
62994;SDS011;49086;52.300;4.850;2022-11-10T11:14:15;15.63;;;2.97;;
62994;SDS011;49086;52.300;4.850;2022-11-10T11:17:01;21.50;;;3.20;;
62994;SDS011;49086;52.300;4.850;2022-11-10T11:19:34;13.38;;;2.58;;
62994;SDS011;49086;52.300;4.850;2022-11-10T11:27:31;13.68;;;2.45;;
62994;SDS011;49086;52.300;4.850;2022-11-10T11:30:13;11.18;;;2.42;;
62994;SDS011;49086;52.300;4.850;2022-11-10T11:32:52;17.60;;;2.80;;
62994;SDS011;49086;52.300;4.850;2022-11-10T11:51:52;13.52;;;2.90;;
62994;SDS011;49086;52.300;4.850;2022-11-10T11:57:08;15.25;;;2.13;;
62994;SDS011;49086;52.300;4.850;2022-11-10T12:05:10;8.45;;;2.03;;
62994;SDS011;49086;52.300;4.850;2022-11-10T12:12:59;11.48;;;1.90;;
62994;SDS011;49086;52.300;4.850;2022-11-10T12:18:17;13.70;;;1.95;;
62994;SDS011;49086;52.300;4.850;2022-11-10T12:20:49;16.75;;;2.47;;
62994;SDS011;49086;52.300;4.850;2022-11-10T12:28:34;12.13;;;2.08;;
62994;SDS011;49086;52.300;4.850;2022-11-10T12:31:02;11.82;;;2.92;;
62994;SDS011;49086;52.300;4.850;2022-11-10T12:38:47;11.65;;;1.90;;
62994;SDS011;49086;52.300;4.850;2022-11-10T12:41:20;11.70;;;2.30;;
62994;SDS011;49086;52.300;4.850;2022-11-10T12:46:32;11.07;;;2.38;;
62994;SDS011;49086;52.300;4.850;2022-11-10T12:49:04;14.50;;;2.40;;
62994;SDS011;49086;52.300;4.850;2022-11-10T12:51:38;9.85;;;2.25;;
62994;SDS011;49086;52.300;4.850;2022-11-10T12:54:09;12.18;;;2.25;;
62994;SDS011;49086;52.300;4.850;2022-11-10T13:01:45;8.60;;;1.85;;
62994;SDS011;49086;52.300;4.850;2022-11-10T13:04:12;7.95;;;2.08;;
62994;SDS011;49086;52.300;4.850;2022-11-10T13:06:50;11.07;;;2.25;;
62994;SDS011;49086;52.300;4.850;2022-11-10T13:09:35;10.02;;;2.13;;
62994;SDS011;49086;52.300;4.850;2022-11-10T13:12:03;17.13;;;3.22;;
62994;SDS011;49086;52.300;4.850;2022-11-10T13:14:28;10.63;;;2.30;;
62994;SDS011;49086;52.300;4.850;2022-11-10T13:16:54;13.32;;;2.30;;
62994;SDS011;49086;52.300;4.850;2022-11-10T13:22:29;13.57;;;2.17;;
62994;SDS011;49086;52.300;4.850;2022-11-10T13:27:50;12.20;;;2.97;;
62994;SDS011;49086;52.300;4.850;2022-11-10T13:30:35;12.20;;;2.20;;
62994;SDS011;49086;52.300;4.850;2022-11-10T13:36:03;6.97;;;1.83;;
62994;SDS011;49086;52.300;4.850;2022-11-10T13:38:34;10.95;;;2.38;;
62994;SDS011;49086;52.300;4.850;2022-11-10T13:58:02;14.23;;;2.13;;
62994;SDS011;49086;52.300;4.850;2022-11-10T14:00:32;14.53;;;2.33;;
62994;SDS011;49086;52.300;4.850;2022-11-10T14:02:59;10.07;;;2.40;;
62994;SDS011;49086;52.300;4.850;2022-11-10T14:07:51;12.15;;;2.40;;
62994;SDS011;49086;52.300;4.850;2022-11-10T14:10:25;11.13;;;1.83;;
62994;SDS011;49086;52.300;4.850;2022-11-10T14:13:00;11.88;;;2.45;;
62994;SDS011;49086;52.300;4.850;2022-11-10T14:15:39;14.75;;;2.05;;
62994;SDS011;49086;52.300;4.850;2022-11-10T14:18:25;15.30;;;2.17;;
62994;SDS011;49086;52.300;4.850;2022-11-10T14:21:01;6.35;;;1.98;;
62994;SDS011;49086;52.300;4.850;2022-11-10T14:23:34;7.47;;;2.30;;
62994;SDS011;49086;52.300;4.850;2022-11-10T14:26:05;10.40;;;2.17;;
62994;SDS011;49086;52.300;4.850;2022-11-10T14:28:35;15.85;;;1.98;;
62994;SDS011;49086;52.300;4.850;2022-11-10T14:31:05;8.40;;;2.33;;
62994;SDS011;49086;52.300;4.850;2022-11-10T14:33:30;12.63;;;2.17;;
62994;SDS011;49086;52.300;4.850;2022-11-10T14:36:03;10.80;;;2.53;;
62994;SDS011;49086;52.300;4.850;2022-11-10T14:38:30;10.73;;;2.75;;
62994;SDS011;49086;52.300;4.850;2022-11-10T14:41:02;10.55;;;2.40;;
62994;SDS011;49086;52.300;4.850;2022-11-10T14:43:29;9.77;;;2.13;;
62994;SDS011;49086;52.300;4.850;2022-11-10T14:46:14;9.93;;;2.63;;
62994;SDS011;49086;52.300;4.850;2022-11-10T14:48:41;9.27;;;2.33;;
62994;SDS011;49086;52.300;4.850;2022-11-10T14:51:14;13.50;;;3.15;;
62994;SDS011;49086;52.300;4.850;2022-11-10T14:53:40;17.10;;;3.03;;
62994;SDS011;49086;52.300;4.850;2022-11-10T14:56:19;10.98;;;2.70;;
62994;SDS011;49086;52.300;4.850;2022-11-10T14:58:45;9.77;;;2.17;;
62994;SDS011;49086;52.300;4.850;2022-11-10T15:03:59;8.40;;;3.17;;
62994;SDS011;49086;52.300;4.850;2022-11-10T15:06:24;7.28;;;2.53;;
62994;SDS011;49086;52.300;4.850;2022-11-10T15:08:53;8.20;;;2.22;;
62994;SDS011;49086;52.300;4.850;2022-11-10T15:11:39;8.32;;;2.20;;
62994;SDS011;49086;52.300;4.850;2022-11-10T15:17:14;9.25;;;1.75;;
62994;SDS011;49086;52.300;4.850;2022-11-10T15:22:16;13.70;;;2.40;;
62994;SDS011;49086;52.300;4.850;2022-11-10T15:24:45;11.18;;;3.13;;
62994;SDS011;49086;52.300;4.850;2022-11-10T15:27:24;16.10;;;2.10;;
62994;SDS011;49086;52.300;4.850;2022-11-10T15:29:50;9.52;;;1.55;;
62994;SDS011;49086;52.300;4.850;2022-11-10T15:35:28;5.97;;;1.58;;
62994;SDS011;49086;52.300;4.850;2022-11-10T15:41:03;9.25;;;1.90;;
62994;SDS011;49086;52.300;4.850;2022-11-10T15:43:50;13.82;;;2.70;;
62994;SDS011;49086;52.300;4.850;2022-11-10T15:46:17;10.02;;;2.17;;
62994;SDS011;49086;52.300;4.850;2022-11-10T15:48:49;9.73;;;2.38;;
62994;SDS011;49086;52.300;4.850;2022-11-10T15:51:17;9.27;;;2.00;;
62994;SDS011;49086;52.300;4.850;2022-11-10T15:53:47;9.70;;;2.33;;
62994;SDS011;49086;52.300;4.850;2022-11-10T15:56:15;4.88;;;1.73;;
62994;SDS011;49086;52.300;4.850;2022-11-10T15:58:45;7.25;;;1.70;;
62994;SDS011;49086;52.300;4.850;2022-11-10T16:01:12;8.35;;;2.30;;
62994;SDS011;49086;52.300;4.850;2022-11-10T16:06:45;10.60;;;2.15;;
62994;SDS011;49086;52.300;4.850;2022-11-10T16:09:11;9.30;;;2.20;;
62994;SDS011;49086;52.300;4.850;2022-11-10T16:11:41;11.30;;;2.70;;
62994;SDS011;49086;52.300;4.850;2022-11-10T16:14:12;7.63;;;2.15;;
62994;SDS011;49086;52.300;4.850;2022-11-10T16:16:38;7.22;;;2.13;;
62994;SDS011;49086;52.300;4.850;2022-11-10T16:19:04;10.27;;;2.70;;
62994;SDS011;49086;52.300;4.850;2022-11-10T16:21:32;10.75;;;2.53;;
62994;SDS011;49086;52.300;4.850;2022-11-10T16:23:59;10.07;;;2.40;;
62994;SDS011;49086;52.300;4.850;2022-11-10T16:26:26;12.25;;;2.70;;
62994;SDS011;49086;52.300;4.850;2022-11-10T16:28:52;11.38;;;2.50;;
62994;SDS011;49086;52.300;4.850;2022-11-10T16:31:40;7.00;;;2.38;;
62994;SDS011;49086;52.300;4.850;2022-11-10T16:34:11;11.10;;;2.67;;
62994;SDS011;49086;52.300;4.850;2022-11-10T16:36:38;11.10;;;2.38;;
62994;SDS011;49086;52.300;4.850;2022-11-10T16:39:10;8.18;;;2.35;;
62994;SDS011;49086;52.300;4.850;2022-11-10T16:41:36;8.15;;;2.35;;
62994;SDS011;49086;52.300;4.850;2022-11-10T16:44:03;14.07;;;2.50;;
62994;SDS011;49086;52.300;4.850;2022-11-10T16:46:30;8.70;;;2.40;;
62994;SDS011;49086;52.300;4.850;2022-11-10T16:48:57;12.27;;;2.63;;
62994;SDS011;49086;52.300;4.850;2022-11-10T16:51:28;6.03;;;2.20;;
62994;SDS011;49086;52.300;4.850;2022-11-10T16:53:55;7.60;;;2.67;;
62994;SDS011;49086;52.300;4.850;2022-11-10T16:56:32;9.75;;;2.63;;
62994;SDS011;49086;52.300;4.850;2022-11-10T16:59:02;12.27;;;2.78;;
62994;SDS011;49086;52.300;4.850;2022-11-10T17:01:28;12.85;;;2.90;;